createdAt,value
2023-01-17T00:02:05.774Z,3.39
2023-01-17T00:04:51.534Z,3.38
2023-01-17T00:07:40.005Z,3.39
2023-01-17T00:10:11.278Z,3.36
2023-01-17T00:12:39.323Z,3.34
2023-01-17T00:15:08.527Z,3.31
2023-01-17T00:17:36.314Z,3.28
2023-01-17T00:20:21.746Z,3.27
2023-01-17T00:23:13.466Z,3.24
2023-01-17T00:25:59.370Z,3.22
2023-01-17T00:28:27.147Z,3.18
2023-01-17T00:30:53.882Z,3.18
2023-01-17T00:33:21.671Z,3.15
2023-01-17T00:35:48.998Z,3.17
2023-01-17T00:38:18.661Z,3.15
2023-01-17T00:40:46.918Z,3.15
2023-01-17T00:43:34.151Z,3.12
2023-01-17T00:46:20.727Z,3.10
2023-01-17T00:49:06.152Z,3.06
2023-01-17T00:51:52.900Z,2.95
2023-01-17T00:54:39.640Z,2.80
2023-01-17T00:57:25.826Z,2.70
2023-01-17T01:00:11.284Z,2.63
2023-01-17T01:02:56.683Z,2.51
2023-01-17T01:05:42.431Z,2.45
2023-01-17T01:08:40.348Z,2.43
2023-01-17T01:11:29.620Z,2.45
2023-01-17T01:14:15.134Z,2.48
2023-01-17T01:17:00.178Z,2.52
2023-01-17T01:19:45.850Z,2.55
2023-01-17T01:22:31.368Z,2.55
2023-01-17T01:25:16.659Z,2.56
2023-01-17T01:28:03.848Z,2.56
2023-01-17T01:30:49.065Z,2.58
2023-01-17T01:33:19.255Z,2.59
2023-01-17T01:35:49.350Z,2.57
2023-01-17T01:38:17.274Z,2.57
2023-01-17T01:40:46.860Z,2.53
2023-01-17T01:43:19.617Z,2.46
2023-01-17T01:45:53.146Z,2.40
2023-01-17T01:48:34.685Z,2.35
2023-01-17T01:51:05.091Z,2.26
2023-01-17T01:53:35.392Z,2.18
2023-01-17T01:56:07.157Z,2.12
2023-01-17T01:58:37.882Z,2.06
2023-01-17T02:01:08.161Z,2.00
2023-01-17T02:03:37.336Z,1.94
2023-01-17T02:06:20.108Z,1.87
2023-01-17T02:08:48.735Z,1.83
2023-01-17T02:11:16.437Z,1.80
2023-01-17T02:13:45.628Z,1.79
2023-01-17T02:16:21.915Z,1.79
2023-01-17T02:19:00.644Z,1.80
2023-01-17T02:21:34.383Z,1.76
2023-01-17T02:24:33.904Z,1.73
2023-01-17T02:27:08.264Z,1.71
2023-01-17T02:30:21.492Z,1.66
2023-01-17T02:33:02.952Z,1.62
2023-01-17T02:35:38.670Z,1.61
2023-01-17T02:38:18.146Z,1.61
2023-01-17T02:40:50.447Z,1.61
2023-01-17T02:43:19.766Z,1.62
2023-01-17T02:45:47.630Z,1.63
2023-01-17T02:48:19.837Z,1.62
2023-01-17T02:51:12.288Z,1.62
2023-01-17T02:53:54.157Z,1.61
2023-01-17T02:56:35.353Z,1.62
2023-01-17T02:59:12.222Z,1.61
2023-01-17T03:01:54.096Z,1.59
2023-01-17T03:04:29.285Z,1.56
2023-01-17T03:07:01.849Z,1.55
2023-01-17T03:09:31.422Z,1.52
2023-01-17T03:12:00.189Z,1.52
2023-01-17T03:14:31.183Z,1.49
2023-01-17T03:16:59.074Z,1.49
2023-01-17T03:19:28.217Z,1.46
2023-01-17T03:21:56.121Z,1.45
2023-01-17T03:24:23.885Z,1.45
2023-01-17T03:26:51.666Z,1.46
2023-01-17T03:29:20.286Z,1.46
2023-01-17T03:31:48.077Z,1.47
2023-01-17T03:34:15.877Z,1.47
2023-01-17T03:36:45.036Z,1.47
2023-01-17T03:39:12.828Z,1.47
2023-01-17T03:41:40.656Z,1.48
2023-01-17T03:44:08.458Z,1.47
2023-01-17T03:46:36.422Z,1.45
2023-01-17T03:49:04.240Z,1.43
2023-01-17T03:51:32.009Z,1.42
2023-01-17T03:54:01.154Z,1.41
2023-01-17T03:56:28.969Z,1.39
2023-01-17T03:58:58.501Z,1.38
2023-01-17T04:01:26.493Z,1.35
2023-01-17T04:03:54.443Z,1.30
2023-01-17T04:06:22.198Z,1.22
2023-01-17T04:08:50.046Z,1.19
2023-01-17T04:11:19.165Z,1.16
2023-01-17T04:13:46.987Z,1.09
2023-01-17T04:16:18.375Z,1.01
2023-01-17T04:18:46.214Z,0.95
2023-01-17T04:21:13.984Z,0.93
2023-01-17T04:23:41.720Z,0.91
2023-01-17T04:26:10.488Z,0.92
2023-01-17T04:28:39.847Z,0.94
2023-01-17T04:31:08.132Z,0.95
2023-01-17T04:33:35.901Z,0.95
2023-01-17T04:36:03.688Z,0.94
2023-01-17T04:38:31.520Z,0.92
2023-01-17T04:40:59.294Z,0.92
2023-01-17T04:43:27.062Z,0.88
2023-01-17T04:45:58.184Z,0.85
2023-01-17T04:48:27.157Z,0.83
2023-01-17T04:51:00.547Z,0.80
2023-01-17T04:53:28.586Z,0.80
2023-01-17T04:55:56.370Z,0.80
2023-01-17T04:58:24.221Z,0.79
2023-01-17T05:00:52.083Z,0.78
2023-01-17T05:03:22.875Z,0.81
2023-01-17T05:05:50.630Z,0.81
2023-01-17T05:08:18.425Z,0.80
2023-01-17T05:10:47.203Z,0.76
2023-01-17T05:13:15.410Z,0.74
2023-01-17T05:15:43.284Z,0.69
2023-01-17T05:18:13.826Z,0.65
2023-01-17T05:20:43.477Z,0.63
2023-01-17T05:23:11.956Z,0.60
2023-01-17T05:25:44.444Z,0.57
2023-01-17T05:28:13.937Z,0.55
2023-01-17T05:30:42.251Z,0.53
2023-01-17T05:33:10.543Z,0.50
2023-01-17T05:35:38.923Z,0.49
2023-01-17T05:38:08.141Z,0.47
2023-01-17T05:40:36.211Z,0.46
2023-01-17T05:43:04.536Z,0.44
2023-01-17T05:45:33.684Z,0.42
2023-01-17T05:48:02.163Z,0.41
2023-01-17T05:50:31.893Z,0.40
2023-01-17T05:53:01.902Z,0.39
2023-01-17T05:55:32.526Z,0.38
2023-01-17T05:58:00.880Z,0.34
2023-01-17T06:00:29.077Z,0.35
2023-01-17T06:02:57.605Z,0.33
2023-01-17T06:05:26.389Z,0.31
2023-01-17T06:07:54.863Z,0.31
2023-01-17T06:10:23.279Z,0.32
2023-01-17T06:13:01.970Z,0.34
2023-01-17T06:15:29.878Z,0.36
2023-01-17T06:17:57.784Z,0.41
2023-01-17T06:20:25.720Z,0.45
2023-01-17T06:22:55.261Z,0.52
2023-01-17T06:25:23.103Z,0.60
2023-01-17T06:27:54.628Z,0.63
2023-01-17T06:30:22.687Z,0.66
2023-01-17T06:32:53.769Z,0.69
2023-01-17T06:35:21.622Z,0.72
2023-01-17T06:37:52.048Z,0.72
2023-01-17T06:40:20.160Z,0.72
2023-01-17T06:42:47.947Z,0.72
2023-01-17T06:45:17.347Z,0.70
2023-01-17T06:47:45.206Z,0.69
2023-01-17T06:50:14.566Z,0.67
2023-01-17T06:52:43.678Z,0.65
2023-01-17T06:55:11.491Z,0.63
2023-01-17T06:57:39.258Z,0.60
2023-01-17T07:00:08.332Z,0.56
2023-01-17T07:02:37.495Z,0.54
2023-01-17T07:05:05.652Z,0.52
2023-01-17T07:07:34.084Z,0.48
2023-01-17T07:10:03.517Z,0.47
2023-01-17T07:12:31.328Z,0.44
2023-01-17T07:14:59.139Z,0.41
2023-01-17T07:17:26.897Z,0.38
2023-01-17T07:19:56.061Z,0.36
2023-01-17T07:22:23.886Z,0.34
2023-01-17T07:24:53.467Z,0.32
2023-01-17T07:27:21.318Z,0.29
2023-01-17T07:29:49.687Z,0.26
2023-01-17T07:32:17.470Z,0.25
2023-01-17T07:34:45.298Z,0.21
2023-01-17T07:37:15.422Z,0.19
2023-01-17T07:39:43.487Z,0.17
2023-01-17T07:42:11.299Z,0.17
2023-01-17T07:44:41.393Z,0.15
2023-01-17T07:47:09.236Z,0.13
2023-01-17T07:49:37.112Z,0.12
2023-01-17T07:52:05.209Z,0.11
2023-01-17T07:54:34.359Z,0.09
2023-01-17T07:57:02.905Z,0.07
2023-01-17T07:59:30.807Z,0.07
2023-01-17T08:01:58.756Z,0.06
2023-01-17T08:04:27.286Z,0.07
2023-01-17T08:06:55.137Z,0.09
2023-01-17T08:09:23.172Z,0.09
2023-01-17T08:11:52.311Z,0.10
2023-01-17T08:14:20.069Z,0.11
2023-01-17T08:16:47.850Z,0.11
2023-01-17T08:19:18.519Z,0.14
2023-01-17T08:21:46.459Z,0.16
2023-01-17T08:24:14.689Z,0.19
2023-01-17T08:26:42.496Z,0.20
2023-01-17T08:29:11.665Z,0.20
2023-01-17T08:31:39.484Z,0.22
2023-01-17T08:34:07.431Z,0.26
2023-01-17T08:36:35.265Z,0.28
2023-01-17T08:39:03.021Z,0.32
2023-01-17T08:41:32.205Z,0.37
2023-01-17T08:43:59.985Z,0.40
2023-01-17T08:46:31.383Z,0.43
2023-01-17T08:49:02.614Z,0.49
2023-01-17T08:51:32.414Z,0.50
2023-01-17T08:54:00.253Z,0.51
2023-01-17T08:56:28.151Z,0.51
2023-01-17T08:58:55.951Z,0.53
2023-01-17T09:01:23.932Z,0.55
2023-01-17T09:03:53.252Z,0.56
2023-01-17T09:06:21.040Z,0.57
2023-01-17T09:08:49.712Z,0.58
2023-01-17T09:11:18.826Z,0.62
2023-01-17T09:13:46.669Z,0.68
2023-01-17T09:16:14.440Z,0.74
2023-01-17T09:18:42.252Z,0.79
2023-01-17T09:21:16.279Z,0.82
2023-01-17T09:23:44.916Z,0.87
2023-01-17T09:26:18.631Z,0.92
2023-01-17T09:28:46.485Z,0.98
2023-01-17T09:31:16.543Z,1.06
2023-01-17T09:33:45.186Z,1.11
2023-01-17T09:36:14.393Z,1.15
2023-01-17T09:38:42.339Z,1.20
2023-01-17T09:41:27.454Z,1.23
2023-01-17T09:44:01.028Z,1.28
2023-01-17T09:46:31.747Z,1.33
2023-01-17T09:49:05.797Z,1.34
2023-01-17T09:51:35.435Z,1.39
2023-01-17T09:54:03.491Z,1.41
2023-01-17T09:56:36.555Z,1.46
2023-01-17T09:59:19.199Z,1.43
2023-01-17T10:01:55.595Z,1.50
2023-01-17T10:04:48.962Z,1.51
2023-01-17T10:07:34.088Z,1.57
2023-01-17T10:10:20.215Z,1.64
2023-01-17T10:12:56.087Z,1.69
2023-01-17T10:15:50.092Z,1.76
2023-01-17T10:18:33.095Z,1.85
2023-01-17T10:21:08.587Z,1.95
2023-01-17T10:23:51.872Z,2.10
2023-01-17T10:26:24.887Z,2.17
2023-01-17T10:28:56.606Z,2.31
2023-01-17T10:31:26.037Z,2.43
2023-01-17T10:33:55.553Z,2.56
2023-01-17T10:36:25.142Z,2.64
2023-01-17T10:38:57.880Z,2.73
2023-01-17T10:41:30.340Z,2.77
2023-01-17T10:44:08.434Z,2.82
2023-01-17T10:46:42.348Z,2.84
2023-01-17T10:49:16.746Z,2.91
2023-01-17T10:52:00.139Z,2.85
2023-01-17T10:54:46.670Z,2.88
2023-01-17T10:57:16.969Z,2.94
2023-01-17T10:59:45.301Z,3.03
2023-01-17T11:02:21.524Z,3.16
2023-01-17T11:04:57.593Z,3.36
2023-01-17T11:07:27.422Z,3.51
2023-01-17T11:09:58.162Z,3.56
2023-01-17T11:12:30.220Z,3.57
2023-01-17T11:15:05.863Z,3.67
2023-01-17T11:17:35.027Z,3.70
2023-01-17T11:20:19.941Z,3.66
2023-01-17T11:23:03.668Z,3.73
2023-01-17T11:25:35.026Z,3.67
2023-01-17T11:28:07.040Z,3.67
2023-01-17T11:30:35.168Z,3.60
2023-01-17T11:33:06.084Z,3.61
2023-01-17T11:35:36.623Z,3.97
2023-01-17T11:38:07.392Z,4.49
2023-01-17T11:40:40.629Z,4.59
2023-01-17T11:43:25.516Z,4.65
2023-01-17T11:46:06.340Z,5.39
2023-01-17T11:48:37.153Z,6.02
2023-01-17T11:51:18.560Z,6.51
2023-01-17T11:53:48.370Z,6.41
2023-01-17T11:56:30.696Z,6.43
2023-01-17T11:59:24.450Z,6.92
2023-01-17T12:02:05.822Z,7.47
2023-01-17T12:04:39.555Z,8.04
2023-01-17T12:07:19.924Z,8.50
2023-01-17T12:09:54.521Z,8.85
2023-01-17T12:12:49.435Z,9.02
2023-01-17T12:15:35.377Z,8.87
2023-01-17T12:18:21.983Z,9.06
2023-01-17T12:20:57.535Z,9.30
2023-01-17T12:24:03.127Z,9.72
2023-01-17T12:26:38.885Z,10.11
2023-01-17T12:29:35.652Z,10.69
2023-01-17T12:32:22.253Z,10.82
2023-01-17T12:34:54.542Z,10.96
2023-01-17T12:37:29.502Z,11.24
2023-01-17T12:40:01.824Z,11.41
2023-01-17T12:42:33.718Z,11.77
2023-01-17T12:45:06.903Z,11.74
2023-01-17T12:47:38.333Z,11.71
2023-01-17T12:50:22.293Z,11.89
2023-01-17T12:52:59.467Z,12.13
2023-01-17T12:55:36.872Z,12.36
2023-01-17T12:58:14.613Z,12.55
2023-01-17T13:01:20.791Z,12.69
2023-01-17T13:04:00.196Z,12.94
2023-01-17T13:06:43.363Z,12.88
2023-01-17T13:09:14.966Z,12.63
2023-01-17T13:11:49.752Z,12.56
2023-01-17T13:14:17.569Z,12.78
2023-01-17T13:16:50.054Z,12.77
2023-01-17T13:19:25.718Z,13.01
2023-01-17T13:21:54.494Z,13.05
2023-01-17T13:24:41.702Z,13.06
2023-01-17T13:27:32.430Z,13.23
2023-01-17T13:30:25.304Z,13.03
2023-01-17T13:33:10.256Z,12.93
2023-01-17T13:35:43.662Z,12.96
2023-01-17T13:38:25.187Z,12.84
2023-01-17T13:40:55.610Z,12.92
2023-01-17T13:43:26.790Z,13.12
2023-01-17T13:45:56.931Z,13.05
2023-01-17T13:48:32.351Z,12.87
2023-01-17T13:51:02.259Z,12.84
2023-01-17T13:54:00.110Z,12.87
2023-01-17T13:56:30.690Z,12.95
2023-01-17T13:59:03.049Z,12.94
2023-01-17T14:01:50.818Z,12.97
2023-01-17T14:04:20.791Z,12.95
2023-01-17T14:06:52.913Z,12.95
2023-01-17T14:09:26.021Z,12.81
2023-01-17T14:12:00.846Z,12.39
2023-01-17T14:14:48.750Z,12.02
2023-01-17T14:17:38.266Z,11.85
2023-01-17T14:20:51.988Z,11.74
2023-01-17T14:23:47.995Z,11.27
2023-01-17T14:26:31.118Z,11.07
2023-01-17T14:29:00.955Z,10.79
2023-01-17T14:31:30.498Z,10.26
2023-01-17T14:34:13.090Z,9.68
2023-01-17T14:36:41.087Z,9.59
2023-01-17T14:39:23.192Z,9.29
2023-01-17T14:41:51.265Z,9.16
2023-01-17T14:44:20.234Z,8.98
2023-01-17T14:46:49.936Z,8.96
2023-01-17T14:49:24.056Z,8.72
2023-01-17T14:52:01.582Z,8.46
2023-01-17T14:54:30.754Z,8.34
2023-01-17T14:57:27.077Z,8.19
2023-01-17T15:00:11.009Z,8.03
2023-01-17T15:02:42.889Z,7.77
2023-01-17T15:05:16.237Z,7.46
2023-01-17T15:07:46.818Z,7.39
2023-01-17T15:10:18.531Z,7.35
2023-01-17T15:12:47.759Z,7.32
2023-01-17T15:15:35.280Z,7.25
2023-01-17T15:18:26.184Z,7.08
2023-01-17T15:21:00.463Z,6.95
2023-01-17T15:23:33.486Z,6.89
2023-01-17T15:26:04.931Z,6.74
2023-01-17T15:28:34.476Z,6.62
2023-01-17T15:31:08.835Z,6.51
2023-01-17T15:33:39.149Z,6.38
2023-01-17T15:36:09.877Z,6.27
2023-01-17T15:38:39.851Z,6.16
2023-01-17T15:41:12.881Z,6.10
2023-01-17T15:43:42.058Z,5.95
2023-01-17T15:46:23.403Z,5.85
2023-01-17T15:48:51.790Z,5.84
2023-01-17T15:51:34.111Z,5.89
2023-01-17T15:54:25.667Z,5.86
2023-01-17T15:57:14.719Z,5.84
2023-01-17T15:59:46.493Z,5.79
2023-01-17T16:02:34.836Z,5.74
2023-01-17T16:05:05.810Z,5.78
2023-01-17T16:07:36.480Z,5.72
2023-01-17T16:10:14.629Z,5.65
2023-01-17T16:12:43.755Z,5.55
2023-01-17T16:15:13.527Z,5.52
2023-01-17T16:17:45.474Z,5.47
2023-01-17T16:20:19.735Z,5.40
2023-01-17T16:22:48.043Z,5.31
2023-01-17T16:25:19.009Z,5.23
2023-01-17T16:27:49.045Z,5.15
2023-01-17T16:30:19.527Z,5.08
2023-01-17T16:32:49.336Z,5.03
2023-01-17T16:35:20.780Z,4.94
2023-01-17T16:37:50.452Z,4.84
2023-01-17T16:40:18.860Z,4.75
2023-01-17T16:42:48.446Z,4.62
2023-01-17T16:45:17.204Z,4.47
2023-01-17T16:47:48.278Z,4.23
2023-01-17T16:50:18.182Z,4.02
2023-01-17T16:52:46.002Z,3.83
2023-01-17T16:55:16.124Z,3.70
2023-01-17T16:57:44.373Z,3.68
2023-01-17T17:00:14.675Z,3.64
2023-01-17T17:02:42.745Z,3.49
2023-01-17T17:05:11.472Z,3.34
2023-01-17T17:07:42.923Z,3.16
2023-01-17T17:10:11.440Z,3.00
2023-01-17T17:12:39.102Z,2.84
2023-01-17T17:15:08.233Z,2.79
2023-01-17T17:17:38.337Z,2.74
2023-01-17T17:20:09.715Z,2.77
2023-01-17T17:22:37.532Z,2.75
2023-01-17T17:25:06.787Z,2.73
2023-01-17T17:27:34.810Z,2.72
2023-01-17T17:30:02.715Z,2.75
2023-01-17T17:32:30.934Z,2.81
2023-01-17T17:35:00.193Z,2.83
2023-01-17T17:37:29.094Z,2.81
2023-01-17T17:39:57.274Z,2.85
2023-01-17T17:42:26.584Z,2.84
2023-01-17T17:44:55.741Z,2.82
2023-01-17T17:47:25.013Z,2.76
2023-01-17T17:49:52.866Z,2.74
2023-01-17T17:52:23.358Z,2.67
2023-01-17T17:54:51.161Z,2.56
2023-01-17T17:57:18.980Z,2.52
2023-01-17T17:59:46.795Z,2.51
2023-01-17T18:02:14.752Z,2.53
2023-01-17T18:04:42.696Z,2.50
2023-01-17T18:07:10.486Z,2.39
2023-01-17T18:09:40.011Z,2.23
2023-01-17T18:12:08.391Z,2.15
2023-01-17T18:14:36.192Z,2.02
2023-01-17T18:17:04.059Z,1.92
2023-01-17T18:19:31.879Z,1.99
2023-01-17T18:21:59.643Z,1.97
2023-01-17T18:24:28.409Z,2.00
2023-01-17T18:26:58.862Z,1.95
2023-01-17T18:29:28.205Z,1.82
2023-01-17T18:31:56.845Z,1.84
2023-01-17T18:34:29.037Z,1.81
2023-01-17T18:36:57.656Z,1.77
2023-01-17T18:39:26.168Z,1.70
2023-01-17T18:41:54.291Z,1.72
2023-01-17T18:44:23.679Z,1.69
2023-01-17T18:46:51.875Z,1.70
2023-01-17T18:49:19.957Z,1.60
2023-01-17T18:51:50.758Z,1.51
2023-01-17T18:54:19.159Z,1.47
2023-01-17T18:56:47.236Z,1.39
2023-01-17T18:59:18.057Z,1.30
2023-01-17T19:01:47.364Z,1.33
2023-01-17T19:04:16.231Z,1.36
2023-01-17T19:06:46.870Z,1.26
2023-01-17T19:09:16.340Z,1.17
2023-01-17T19:11:45.094Z,1.09
2023-01-17T19:14:14.435Z,1.01
2023-01-17T19:16:43.223Z,0.92
2023-01-17T19:19:15.399Z,0.85
2023-01-17T19:21:43.605Z,0.81
2023-01-17T19:24:13.035Z,0.77
2023-01-17T19:26:41.242Z,0.76
2023-01-17T19:29:09.062Z,0.74
2023-01-17T19:31:42.505Z,0.74
2023-01-17T19:34:14.182Z,0.72
2023-01-17T19:36:42.221Z,0.70
2023-01-17T19:39:10.613Z,0.64
2023-01-17T19:41:42.924Z,0.60
2023-01-17T19:44:12.092Z,0.59
2023-01-17T19:46:39.912Z,0.58
2023-01-17T19:49:09.472Z,0.60
2023-01-17T19:51:40.329Z,0.64
2023-01-17T19:54:08.457Z,0.64
2023-01-17T19:56:36.648Z,0.66
2023-01-17T19:59:04.461Z,0.65
2023-01-17T20:01:34.032Z,0.64
2023-01-17T20:04:02.921Z,0.61
2023-01-17T20:06:32.870Z,0.58
2023-01-17T20:09:02.798Z,0.57
2023-01-17T20:11:30.615Z,0.57
2023-01-17T20:13:59.959Z,0.57
2023-01-17T20:16:31.150Z,0.55
2023-01-17T20:19:00.196Z,0.53
2023-01-17T20:21:30.038Z,0.52
2023-01-17T20:23:59.504Z,0.49
2023-01-17T20:26:34.572Z,0.48
2023-01-17T20:29:03.239Z,0.45
2023-01-17T20:31:32.088Z,0.42
2023-01-17T20:33:59.921Z,0.42
2023-01-17T20:36:28.942Z,0.42
2023-01-17T20:39:16.001Z,0.42
2023-01-17T20:41:49.781Z,0.40
2023-01-17T20:44:18.673Z,0.39
2023-01-17T20:46:48.117Z,0.38
2023-01-17T20:49:18.708Z,0.36
2023-01-17T20:51:47.915Z,0.34
2023-01-17T20:54:18.144Z,0.31
2023-01-17T20:56:48.133Z,0.28
2023-01-17T20:59:18.155Z,0.25
2023-01-17T21:01:46.831Z,0.23
2023-01-17T21:04:15.145Z,0.23
2023-01-17T21:06:44.135Z,0.22
2023-01-17T21:09:14.248Z,0.22
2023-01-17T21:11:42.357Z,0.20
2023-01-17T21:14:11.523Z,0.20
2023-01-17T21:16:39.560Z,0.19
2023-01-17T21:19:11.766Z,0.19
2023-01-17T21:21:39.545Z,0.19
2023-01-17T21:24:07.691Z,0.19
2023-01-17T21:26:38.200Z,0.17
2023-01-17T21:29:06.076Z,0.17
2023-01-17T21:31:36.698Z,0.16
2023-01-17T21:34:07.018Z,0.14
2023-01-17T21:36:37.012Z,0.14
2023-01-17T21:39:06.792Z,0.11
2023-01-17T21:41:36.666Z,0.10
2023-01-17T21:44:07.927Z,0.08
2023-01-17T21:46:39.678Z,0.07
2023-01-17T21:49:10.463Z,0.06
2023-01-17T21:52:02.176Z,0.04
2023-01-17T21:54:48.863Z,0.03
2023-01-17T21:57:36.384Z,0.00
2023-01-17T22:00:06.382Z,-0.04
2023-01-17T22:02:40.991Z,-0.05
2023-01-17T22:05:10.182Z,-0.06
2023-01-17T22:07:38.975Z,-0.09
2023-01-17T22:10:07.921Z,-0.12
2023-01-17T22:12:35.689Z,-0.16
2023-01-17T22:15:04.104Z,-0.17
2023-01-17T22:17:31.871Z,-0.18
2023-01-17T22:20:01.011Z,-0.20
2023-01-17T22:22:33.028Z,-0.21
2023-01-17T22:25:00.814Z,-0.24
2023-01-17T22:27:29.623Z,-0.26
2023-01-17T22:29:57.398Z,-0.29
2023-01-17T22:32:25.301Z,-0.33
2023-01-17T22:34:53.543Z,-0.35
2023-01-17T22:37:22.698Z,-0.38
2023-01-17T22:39:50.511Z,-0.41
2023-01-17T22:42:18.434Z,-0.44
2023-01-17T22:44:47.705Z,-0.47
2023-01-17T22:47:15.549Z,-0.50
2023-01-17T22:49:43.357Z,-0.52
2023-01-17T22:52:11.140Z,-0.52
2023-01-17T22:54:40.285Z,-0.54
2023-01-17T22:57:08.449Z,-0.54
2023-01-17T22:59:36.306Z,-0.54
2023-01-17T23:02:04.145Z,-0.54
2023-01-17T23:04:31.935Z,-0.54
2023-01-17T23:06:59.717Z,-0.55
2023-01-17T23:09:27.781Z,-0.55
2023-01-17T23:11:56.881Z,-0.55
2023-01-17T23:14:26.386Z,-0.56
2023-01-17T23:17:13.750Z,-0.57
2023-01-17T23:19:43.131Z,-0.60
2023-01-17T23:22:22.172Z,-0.59
2023-01-17T23:24:52.348Z,-0.62
2023-01-17T23:27:41.280Z,-0.63
2023-01-17T23:30:12.617Z,-0.64
2023-01-17T23:32:41.811Z,-0.65
2023-01-17T23:35:09.915Z,-0.66
2023-01-17T23:37:55.354Z,-0.67
2023-01-17T23:40:23.241Z,-0.70
2023-01-17T23:43:09.656Z,-0.74
2023-01-17T23:45:38.656Z,-0.77
2023-01-17T23:48:09.468Z,-0.80
2023-01-17T23:50:37.741Z,-0.86
2023-01-17T23:53:08.682Z,-0.88
2023-01-17T23:55:38.235Z,-0.89
2023-01-17T23:58:08.500Z,-0.89
